Portada
METAR-TAF:

METAR-TAF

Aeroports :

Trujillo, Perú

latitud: 08-06S, longitud: 079-02W, altitud: 26 m

Observació

L'informe es va fer fa 4 hores i 27 minuts, a les 23:00 UTC
Vent 9 kt del Sud/Sud-Est
Temperatura 19°C
Humitat 78%
Pressió 1012 hPa
Visibilitat: 9000 m

METAR: SPRU 042300Z 15009KT 9000 NSC 19/15 Q1012 RMK PP000

Hora: 22:27 (03:27 UTC)

Pronòstic

L'informe es va fer fa 4 hores i 27 minuts, a les 23:00 UTC
Pronòstic vàlid del 05 a les 00 UTC al 05 a les 24 UTC
Vent 10 kt del Sud/Sud-Est
Visibilitat: 9000 m
Evolucionant progressivament
l' 05 a les 09 UTC al 05 a les 11 UTC
Visibilitat: 6000 m
Temporalment
l' 05 a les 12 UTC al 05 a les 14 UTC
Visibilitat: 4000 m
Cel cobert a una alçada de 400 ft
boirina
Evolucionant progressivament
l' 05 a les 17 UTC al 05 a les 19 UTC
Visibilitat: 9000 m

TAF: SPRU 042300Z 0500/0524 15010KT 9000 NSC TX21/0519Z TN16/0511Z BECMG 0509/0511 6000 NSC TEMPO 0512/0514 4000 BR OVC004 BECMG 0517/0519 9000

Observacions i pronòstics meteorològics de més de 4000 aeroports (METAR i TAF).

Les estacions disponibles són els punts grocs i vermells al mapa.

Posi el ratolí al punt desitjat per veure el nom de l'estació.

Feu clic per veure les observacions i els pronòstics meteorològics.

Per canviar el mapa: feu clic els botons verds amb una creu de color negre per apropar; al botó verd amb un guió per allunyar la imatge; o en les fletxes verdes per a mapes adjacents.


METAR-TAF: